createdAt,value
2019-05-13T00:01:54.020Z,5.88
2019-05-13T00:04:27.140Z,5.74
2019-05-13T00:07:00.569Z,5.66
2019-05-13T00:09:34.214Z,5.55
2019-05-13T00:12:07.648Z,5.55
2019-05-13T00:14:43.310Z,5.49
2019-05-13T00:17:16.215Z,5.42
2019-05-13T00:19:49.643Z,5.44
2019-05-13T00:22:23.539Z,5.41
2019-05-13T00:24:57.008Z,5.31
2019-05-13T00:27:30.442Z,5.42
2019-05-13T00:30:05.711Z,5.34
2019-05-13T00:32:39.077Z,5.26
2019-05-13T00:35:14.205Z,5.21
2019-05-13T00:37:47.691Z,5.24
2019-05-13T00:40:21.068Z,5.27
2019-05-13T00:42:54.636Z,5.59
2019-05-13T00:45:27.981Z,5.76
2019-05-13T00:48:01.415Z,5.92
2019-05-13T00:50:34.866Z,6.05
2019-05-13T00:53:08.418Z,6.05
2019-05-13T00:55:44.233Z,6.15
2019-05-13T00:58:17.018Z,6.40
2019-05-13T01:00:50.422Z,6.51
2019-05-13T01:03:25.335Z,6.59
2019-05-13T01:05:58.954Z,6.78
2019-05-13T01:08:33.817Z,6.85
2019-05-13T01:11:07.407Z,7.02
2019-05-13T01:13:43.202Z,7.07
2019-05-13T01:16:15.936Z,7.05
2019-05-13T01:18:49.360Z,6.91
2019-05-13T01:21:23.930Z,6.89
2019-05-13T01:23:57.460Z,6.83
2019-05-13T01:26:30.851Z,6.79
2019-05-13T01:29:04.374Z,6.85
2019-05-13T01:31:37.734Z,6.89
2019-05-13T01:34:11.183Z,6.97
2019-05-13T01:36:44.855Z,6.90
2019-05-13T01:39:18.301Z,6.87
2019-05-13T01:41:54.005Z,6.87
2019-05-13T01:44:26.831Z,6.81
2019-05-13T01:47:00.224Z,6.82
2019-05-13T01:49:33.901Z,6.76
2019-05-13T01:52:07.375Z,6.76
2019-05-13T01:54:40.774Z,6.78
2019-05-13T01:57:14.411Z,6.73
2019-05-13T01:59:48.229Z,6.71
2019-05-13T02:02:24.089Z,6.59
2019-05-13T02:04:56.765Z,6.56
2019-05-13T02:07:30.171Z,6.53
2019-05-13T02:10:05.509Z,6.37
2019-05-13T02:12:38.909Z,6.29
2019-05-13T02:15:14.493Z,6.21
2019-05-13T02:17:47.573Z,5.99
2019-05-13T02:20:20.975Z,6.00
2019-05-13T02:22:54.391Z,5.97
2019-05-13T02:25:27.787Z,5.89
2019-05-13T02:28:07.824Z,5.79
2019-05-13T02:30:36.308Z,5.73
2019-05-13T02:33:12.913Z,5.71
2019-05-13T02:35:44.845Z,5.78
2019-05-13T02:38:24.464Z,5.87
2019-05-13T02:40:53.849Z,5.88
2019-05-13T02:43:27.342Z,6.13
2019-05-13T02:46:04.182Z,6.19
2019-05-13T02:48:35.895Z,6.30
2019-05-13T02:51:12.182Z,6.34
2019-05-13T02:53:44.505Z,6.18
2019-05-13T02:56:17.934Z,6.10
2019-05-13T02:58:52.629Z,6.09
2019-05-13T03:01:26.225Z,6.06
2019-05-13T03:04:02.751Z,6.04
2019-05-13T03:06:34.830Z,5.96
2019-05-13T03:09:08.607Z,5.92
2019-05-13T03:11:42.545Z,6.00
2019-05-13T03:14:16.084Z,5.95
2019-05-13T03:17:03.670Z,5.80
2019-05-13T03:19:37.143Z,5.91
2019-05-13T03:22:13.520Z,5.88
2019-05-13T03:24:45.674Z,5.73
2019-05-13T03:27:20.526Z,6.01
2019-05-13T03:29:54.188Z,5.77
2019-05-13T03:32:35.703Z,5.67
2019-05-13T03:35:07.594Z,5.56
2019-05-13T03:37:38.722Z,5.60
2019-05-13T03:40:13.330Z,5.75
2019-05-13T03:42:48.978Z,5.73
2019-05-13T03:45:24.804Z,5.85
2019-05-13T03:48:03.981Z,6.01
2019-05-13T03:50:35.544Z,6.00
2019-05-13T03:53:12.123Z,5.98
2019-05-13T03:55:44.818Z,6.10
2019-05-13T03:58:18.723Z,6.08
2019-05-13T04:00:52.116Z,6.16
2019-05-13T04:03:25.616Z,6.09
2019-05-13T04:06:03.248Z,6.17
2019-05-13T04:08:34.351Z,6.14
2019-05-13T04:11:07.737Z,6.38
2019-05-13T04:13:42.974Z,6.26
2019-05-13T04:16:16.504Z,5.76
2019-05-13T04:18:53.375Z,5.52
2019-05-13T04:21:25.184Z,5.36
2019-05-13T04:23:58.746Z,5.35
2019-05-13T04:26:32.488Z,5.33
2019-05-13T04:29:05.935Z,5.38
2019-05-13T04:31:42.319Z,5.44
2019-05-13T04:34:14.685Z,5.97
2019-05-13T04:36:48.216Z,6.10
2019-05-13T04:39:40.100Z,5.82
2019-05-13T04:41:57.417Z,6.32
2019-05-13T04:44:32.341Z,7.58
2019-05-13T04:47:06.199Z,8.10
2019-05-13T04:49:42.614Z,9.32
2019-05-13T04:52:14.870Z,8.59
2019-05-13T04:54:48.360Z,9.02
2019-05-13T04:57:22.830Z,8.96
2019-05-13T04:59:56.431Z,8.57
2019-05-13T05:02:49.491Z,8.44
2019-05-13T05:05:45.276Z,9.01
2019-05-13T05:08:27.673Z,9.11
2019-05-13T05:11:16.198Z,9.54
2019-05-13T05:14:12.025Z,8.83
2019-05-13T05:16:48.661Z,9.32
2019-05-13T05:19:47.587Z,9.21
2019-05-13T05:22:51.273Z,9.10
2019-05-13T05:25:41.634Z,10.69
2019-05-13T05:28:33.634Z,9.62
2019-05-13T05:31:18.932Z,10.07
2019-05-13T05:34:32.357Z,9.35
2019-05-13T05:37:43.003Z,10.20
2019-05-13T05:40:30.456Z,9.51
2019-05-13T05:42:54.489Z,9.89
2019-05-13T05:45:28.074Z,9.33
2019-05-13T05:48:04.243Z,8.57
2019-05-13T05:50:37.995Z,8.82
2019-05-13T05:53:14.727Z,8.58
2019-05-13T05:55:51.812Z,8.20
2019-05-13T05:58:26.809Z,8.13
2019-05-13T06:01:02.562Z,8.13
2019-05-13T06:03:38.647Z,8.32
2019-05-13T06:06:13.910Z,9.44
2019-05-13T06:08:47.381Z,9.97
2019-05-13T06:11:22.283Z,10.21
2019-05-13T06:13:55.986Z,10.17
2019-05-13T06:16:31.877Z,10.30
2019-05-13T06:19:04.811Z,10.30
2019-05-13T06:21:38.415Z,10.37
2019-05-13T06:24:12.189Z,10.59
2019-05-13T06:26:46.111Z,10.49
2019-05-13T06:29:22.061Z,10.28
2019-05-13T06:31:54.889Z,10.46
2019-05-13T06:34:28.297Z,10.35
2019-05-13T06:37:02.178Z,11.18
2019-05-13T06:39:35.837Z,11.00
2019-05-13T06:42:11.470Z,10.99
2019-05-13T06:44:44.461Z,10.95
2019-05-13T06:47:17.880Z,10.89
2019-05-13T06:49:51.697Z,11.50
2019-05-13T06:52:25.201Z,11.07
2019-05-13T06:54:58.628Z,11.59
2019-05-13T06:57:32.298Z,11.64
2019-05-13T07:00:07.163Z,11.12
2019-05-13T07:02:42.696Z,12.14
2019-05-13T07:05:15.817Z,11.30
2019-05-13T07:07:51.318Z,11.89
2019-05-13T07:10:24.398Z,12.18
2019-05-13T07:12:57.803Z,12.45
2019-05-13T07:15:31.547Z,12.65
2019-05-13T07:18:05.201Z,11.74
2019-05-13T07:20:38.617Z,12.95
2019-05-13T07:23:12.439Z,13.41
2019-05-13T07:25:45.958Z,13.41
2019-05-13T07:28:21.705Z,13.09
2019-05-13T07:30:54.518Z,13.20
2019-05-13T07:33:27.931Z,12.72
2019-05-13T07:36:03.275Z,11.98
2019-05-13T07:38:37.167Z,12.99
2019-05-13T07:41:12.009Z,12.60
2019-05-13T07:43:46.410Z,13.23
2019-05-13T07:46:21.814Z,13.69
2019-05-13T07:48:54.925Z,12.09
2019-05-13T07:51:28.414Z,12.92
2019-05-13T07:54:02.366Z,12.15
2019-05-13T07:56:35.973Z,11.38
2019-05-13T07:59:12.016Z,11.70
2019-05-13T08:01:44.570Z,11.56
2019-05-13T08:04:22.753Z,11.51
2019-05-13T08:06:53.215Z,12.03
2019-05-13T08:09:26.692Z,11.95
2019-05-13T08:12:09.153Z,12.23
2019-05-13T08:14:35.438Z,11.84
2019-05-13T08:17:08.797Z,11.81
2019-05-13T08:19:42.216Z,12.32
2019-05-13T08:22:15.759Z,12.77
2019-05-13T08:24:51.887Z,12.16
2019-05-13T08:27:30.487Z,12.17
2019-05-13T08:30:01.692Z,12.23
2019-05-13T08:32:34.654Z,12.13
2019-05-13T08:35:09.421Z,12.33
2019-05-13T08:37:43.893Z,12.50
2019-05-13T08:40:20.079Z,12.90
2019-05-13T08:42:52.756Z,12.89
2019-05-13T08:45:26.191Z,12.35
2019-05-13T08:48:01.774Z,12.78
2019-05-13T08:50:34.797Z,13.21
2019-05-13T08:53:08.257Z,13.13
2019-05-13T08:55:42.545Z,13.53
2019-05-13T08:58:16.345Z,13.50
2019-05-13T09:00:52.942Z,12.96
2019-05-13T09:03:26.598Z,13.36
2019-05-13T09:06:02.535Z,12.99
2019-05-13T09:08:35.284Z,13.49
2019-05-13T09:11:08.708Z,13.36
2019-05-13T09:13:42.460Z,13.56
2019-05-13T09:16:15.970Z,13.92
2019-05-13T09:18:52.037Z,13.46
2019-05-13T09:21:24.505Z,13.55
2019-05-13T09:23:57.909Z,13.50
2019-05-13T09:26:31.738Z,13.61
2019-05-13T09:29:05.826Z,13.90
2019-05-13T09:31:41.402Z,13.72
2019-05-13T09:34:14.475Z,13.70
2019-05-13T09:36:47.897Z,13.97
2019-05-13T09:39:21.724Z,14.24
2019-05-13T09:41:55.221Z,14.21
2019-05-13T09:44:28.635Z,13.82
2019-05-13T09:47:02.792Z,13.99
2019-05-13T09:49:36.242Z,13.89
2019-05-13T09:52:11.912Z,13.97
2019-05-13T09:54:44.891Z,14.31
2019-05-13T09:57:18.309Z,14.19
2019-05-13T09:59:52.402Z,14.34
2019-05-13T10:02:25.931Z,14.19
2019-05-13T10:05:01.949Z,15.15
2019-05-13T10:07:34.508Z,14.19
2019-05-13T10:10:09.037Z,13.95
2019-05-13T10:12:42.751Z,14.12
2019-05-13T10:15:16.181Z,14.68
2019-05-13T10:17:52.531Z,14.64
2019-05-13T10:20:48.590Z,14.42
2019-05-13T10:23:22.538Z,14.41
2019-05-13T10:25:58.991Z,14.46
2019-05-13T10:28:33.038Z,14.57
2019-05-13T10:31:06.695Z,14.55
2019-05-13T10:33:42.042Z,14.49
2019-05-13T10:36:15.388Z,14.40
2019-05-13T10:38:49.043Z,14.25
2019-05-13T10:41:22.648Z,14.88
2019-05-13T10:43:56.048Z,14.24
2019-05-13T10:46:31.702Z,14.97
2019-05-13T10:49:04.785Z,15.36
2019-05-13T10:51:38.174Z,15.06
2019-05-13T10:54:11.751Z,14.85
2019-05-13T10:56:45.212Z,15.08
2019-05-13T10:59:18.692Z,15.34
2019-05-13T11:01:52.088Z,15.33
2019-05-13T11:04:25.574Z,14.99
2019-05-13T11:06:58.967Z,15.95
2019-05-13T11:09:32.794Z,15.42
2019-05-13T11:12:08.157Z,15.08
2019-05-13T11:14:42.215Z,15.27
2019-05-13T11:17:15.817Z,15.54
2019-05-13T11:19:49.298Z,15.90
2019-05-13T11:22:22.758Z,15.63
2019-05-13T11:24:56.125Z,15.63
2019-05-13T11:27:32.179Z,14.86
2019-05-13T11:30:07.708Z,15.03
2019-05-13T11:32:42.598Z,15.12
2019-05-13T11:35:16.457Z,15.94
2019-05-13T11:37:52.190Z,15.62
2019-05-13T11:40:25.052Z,15.40
2019-05-13T11:42:58.440Z,15.59
2019-05-13T11:45:31.930Z,15.70
2019-05-13T11:48:05.653Z,15.68
2019-05-13T11:50:42.185Z,15.78
2019-05-13T11:53:31.205Z,15.84
2019-05-13T11:55:52.285Z,16.10
2019-05-13T11:58:25.034Z,15.40
2019-05-13T12:01:02.578Z,16.10
2019-05-13T12:03:34.976Z,15.96
2019-05-13T12:06:08.402Z,15.29
2019-05-13T12:11:17.004Z,16.28
2019-05-13T12:13:52.844Z,16.09
2019-05-13T12:16:25.547Z,16.09
2019-05-13T12:18:58.998Z,15.91
2019-05-13T12:21:32.422Z,16.36
2019-05-13T12:24:10.570Z,16.32
2019-05-13T12:26:43.407Z,16.24
2019-05-13T12:29:19.122Z,16.34
2019-05-13T12:31:52.638Z,17.04
2019-05-13T12:34:26.304Z,16.43
2019-05-13T12:37:03.102Z,16.28
2019-05-13T12:39:34.885Z,16.15
2019-05-13T12:42:08.313Z,16.30
2019-05-13T12:44:59.791Z,16.05
2019-05-13T12:47:17.015Z,16.32
2019-05-13T12:49:50.491Z,16.69
2019-05-13T12:52:24.018Z,17.01
2019-05-13T12:54:57.856Z,15.82
2019-05-13T12:57:32.431Z,16.63
2019-05-13T13:00:07.160Z,15.69
2019-05-13T13:02:40.569Z,15.69
2019-05-13T13:05:20.034Z,16.09
2019-05-13T13:08:13.509Z,16.86
2019-05-13T13:10:24.695Z,16.48
2019-05-13T13:12:58.105Z,16.48
2019-05-13T13:15:38.410Z,16.14
2019-05-13T13:18:06.916Z,16.57
2019-05-13T13:20:42.122Z,16.76
2019-05-13T13:23:15.545Z,16.46
2019-05-13T13:28:24.387Z,17.08
2019-05-13T13:30:57.769Z,16.85
2019-05-13T13:33:34.193Z,16.60
2019-05-13T13:36:06.326Z,16.82
2019-05-13T13:38:43.678Z,16.76
2019-05-13T13:41:22.317Z,16.92
2019-05-13T13:43:53.845Z,17.03
2019-05-13T13:46:36.944Z,17.27
2019-05-13T13:49:00.725Z,16.38
2019-05-13T13:51:34.479Z,16.94
2019-05-13T13:54:08.147Z,16.89
2019-05-13T13:56:43.928Z,16.89
2019-05-13T13:59:16.768Z,16.53
2019-05-13T14:01:55.068Z,16.86
2019-05-13T14:04:25.359Z,16.81
2019-05-13T14:06:31.861Z,16.10
2019-05-13T14:06:55.936Z,17.01
2019-05-13T14:09:33.915Z,17.05
2019-05-13T14:12:07.314Z,16.81
2019-05-13T14:14:41.557Z,17.09
2019-05-13T14:17:15.074Z,17.07
2019-05-13T14:19:48.502Z,17.17
2019-05-13T14:22:22.007Z,16.75
2019-05-13T14:24:55.579Z,17.79
2019-05-13T14:27:31.321Z,17.52
2019-05-13T14:30:06.104Z,17.52
2019-05-13T14:32:41.768Z,17.35
2019-05-13T14:35:14.768Z,17.11
2019-05-13T14:37:48.166Z,17.20
2019-05-13T14:40:22.451Z,16.89
2019-05-13T14:42:56.075Z,17.09
2019-05-13T14:45:31.827Z,17.23
2019-05-13T14:48:05.115Z,17.24
2019-05-13T14:50:38.544Z,17.11
2019-05-13T14:53:11.934Z,16.90
2019-05-13T14:55:45.358Z,16.86
2019-05-13T14:58:21.726Z,16.77
2019-05-13T15:01:11.219Z,17.09
2019-05-13T15:03:29.166Z,16.80
2019-05-13T15:06:02.595Z,16.80
2019-05-13T15:08:35.981Z,16.68
2019-05-13T15:11:09.411Z,16.73
2019-05-13T15:13:42.839Z,16.99
2019-05-13T15:16:16.263Z,17.38
2019-05-13T15:18:52.227Z,16.66
2019-05-13T15:21:24.836Z,16.66
2019-05-13T15:23:58.224Z,17.16
2019-05-13T15:26:31.654Z,17.16
2019-05-13T15:29:05.320Z,17.22
2019-05-13T15:31:38.822Z,16.81
2019-05-13T15:34:12.269Z,16.54
2019-05-13T15:36:45.755Z,16.66
2019-05-13T15:39:19.181Z,16.82
2019-05-13T15:41:52.628Z,17.45
2019-05-13T15:44:26.090Z,17.80
2019-05-13T15:47:03.907Z,18.12
2019-05-13T15:49:34.711Z,18.19
2019-05-13T15:52:08.213Z,18.71
2019-05-13T15:54:41.686Z,18.93
2019-05-13T15:57:15.049Z,18.56
2019-05-13T15:59:48.524Z,17.73
2019-05-13T16:02:22.765Z,18.04
2019-05-13T16:05:01.255Z,18.14
2019-05-13T16:07:31.501Z,18.11
2019-05-13T16:10:06.971Z,18.09
2019-05-13T16:12:40.549Z,17.99
2019-05-13T16:15:15.800Z,18.26
2019-05-13T16:17:51.935Z,17.75
2019-05-13T16:20:24.479Z,17.58
2019-05-13T16:22:58.150Z,17.95
2019-05-13T16:25:32.575Z,17.86
2019-05-13T16:28:06.031Z,17.66
2019-05-13T16:30:41.911Z,17.67
2019-05-13T16:33:14.577Z,17.90
2019-05-13T16:35:47.992Z,17.90
2019-05-13T16:38:22.059Z,17.71
2019-05-13T16:40:55.511Z,17.53
2019-05-13T16:43:28.908Z,17.62
2019-05-13T16:46:02.369Z,17.67
2019-05-13T16:48:35.773Z,17.73
2019-05-13T16:51:12.025Z,17.58
2019-05-13T16:53:44.332Z,17.60
2019-05-13T16:56:26.905Z,17.62
2019-05-13T16:58:52.910Z,17.87
2019-05-13T17:01:26.432Z,17.69
2019-05-13T17:04:01.854Z,17.98
2019-05-13T17:06:35.053Z,17.62
2019-05-13T17:09:08.441Z,17.31
2019-05-13T17:11:41.885Z,17.19
2019-05-13T17:14:15.306Z,17.56
2019-05-13T17:16:48.711Z,17.85
2019-05-13T17:19:22.127Z,17.52
2019-05-13T17:21:55.601Z,17.32
2019-05-13T17:24:31.633Z,17.02
2019-05-13T17:27:04.317Z,17.08
2019-05-13T17:29:37.717Z,16.76
2019-05-13T17:32:11.576Z,16.80
2019-05-13T17:34:46.050Z,16.59
2019-05-13T17:37:22.076Z,16.88
2019-05-13T17:39:55.361Z,15.89
2019-05-13T17:42:28.815Z,15.61
2019-05-13T17:45:02.511Z,15.50
2019-05-13T17:47:35.952Z,15.45
2019-05-13T17:50:11.519Z,15.45
2019-05-13T17:52:44.632Z,15.45
2019-05-13T17:55:18.094Z,15.35
2019-05-13T17:57:51.631Z,15.34
2019-05-13T18:00:25.100Z,15.24
2019-05-13T18:02:58.588Z,15.20
2019-05-13T18:05:32.006Z,15.17
2019-05-13T18:08:05.423Z,15.12
2019-05-13T18:10:38.820Z,15.05
2019-05-13T18:13:12.746Z,15.07
2019-05-13T18:15:46.265Z,14.98
2019-05-13T18:18:21.517Z,14.93
2019-05-13T18:20:55.048Z,14.92
2019-05-13T18:23:28.555Z,14.90
2019-05-13T18:26:02.150Z,14.88
2019-05-13T18:28:35.606Z,14.72
2019-05-13T18:31:09.025Z,14.42
2019-05-13T18:33:42.563Z,14.42
2019-05-13T18:36:15.931Z,14.30
2019-05-13T18:38:49.426Z,14.30
2019-05-13T18:41:22.854Z,14.25
2019-05-13T18:43:56.384Z,14.14
2019-05-13T18:46:32.117Z,14.04
2019-05-13T18:49:04.966Z,14.06
2019-05-13T18:51:38.373Z,13.87
2019-05-13T18:54:12.194Z,13.97
2019-05-13T18:56:46.590Z,13.90
2019-05-13T18:59:21.427Z,13.90
2019-05-13T19:01:54.885Z,13.89
2019-05-13T19:04:28.345Z,13.89
2019-05-13T19:07:02.508Z,13.76
2019-05-13T19:09:36.081Z,13.66
2019-05-13T19:12:11.533Z,13.70
2019-05-13T19:14:44.649Z,13.60
2019-05-13T19:17:18.114Z,13.57
2019-05-13T19:19:51.574Z,13.57
2019-05-13T19:22:25.067Z,13.62
2019-05-13T19:24:58.513Z,13.46
2019-05-13T19:27:32.177Z,13.39
2019-05-13T19:30:07.308Z,13.32
2019-05-13T19:32:41.609Z,13.27
2019-05-13T19:35:15.417Z,13.14
2019-05-13T19:37:51.411Z,13.01
2019-05-13T19:40:24.007Z,12.94
2019-05-13T19:42:57.456Z,12.81
2019-05-13T19:45:32.249Z,12.75
2019-05-13T19:48:05.827Z,12.62
2019-05-13T19:50:41.406Z,12.63
2019-05-13T19:53:14.385Z,12.48
2019-05-13T19:55:47.833Z,12.43
2019-05-13T19:58:21.612Z,12.37
2019-05-13T20:00:55.245Z,12.24
2019-05-13T20:03:28.728Z,12.17
2019-05-13T20:06:02.440Z,12.05
2019-05-13T20:08:35.838Z,11.99
2019-05-13T20:11:11.568Z,11.81
2019-05-13T20:13:44.613Z,11.77
2019-05-13T20:16:18.106Z,11.58
2019-05-13T20:18:51.828Z,11.49
2019-05-13T20:21:25.334Z,11.37
2019-05-13T20:23:59.242Z,11.36
2019-05-13T20:26:35.626Z,11.27
2019-05-13T20:29:09.603Z,11.23
2019-05-13T20:31:42.989Z,11.29
2019-05-13T20:34:16.447Z,11.22
2019-05-13T20:36:51.589Z,11.23
2019-05-13T20:39:25.153Z,11.11
2019-05-13T20:42:01.385Z,11.02
2019-05-13T20:44:34.116Z,10.93
2019-05-13T20:47:07.547Z,10.91
2019-05-13T20:49:41.746Z,10.81
2019-05-13T20:52:15.646Z,10.77
2019-05-13T20:54:51.130Z,10.67
2019-05-13T20:57:26.042Z,10.58
2019-05-13T20:59:59.651Z,10.55
2019-05-13T21:02:34.963Z,10.55
2019-05-13T21:05:08.821Z,10.45
2019-05-13T21:07:42.239Z,10.42
2019-05-13T21:10:16.201Z,10.31
2019-05-13T21:12:51.392Z,10.25
2019-05-13T21:15:24.864Z,10.18
2019-05-13T21:17:58.282Z,10.12
2019-05-13T21:20:32.058Z,9.99
2019-05-13T21:23:05.700Z,9.96
2019-05-13T21:25:39.179Z,9.89
2019-05-13T21:28:12.597Z,9.87
2019-05-13T21:30:46.014Z,9.89
2019-05-13T21:33:21.930Z,9.95
2019-05-13T21:35:54.646Z,9.66
2019-05-13T21:38:28.073Z,9.45
2019-05-13T21:41:01.611Z,9.37
2019-05-13T21:43:35.106Z,9.23
2019-05-13T21:46:08.510Z,9.12
2019-05-13T21:48:41.926Z,9.04
2019-05-13T21:51:15.477Z,9.17
2019-05-13T21:53:48.892Z,9.31
2019-05-13T21:56:23.265Z,9.40
2019-05-13T21:58:56.785Z,9.45
2019-05-13T22:01:31.441Z,9.43
2019-05-13T22:04:05.251Z,9.35
2019-05-13T22:06:38.686Z,9.32
2019-05-13T22:09:12.960Z,9.34
2019-05-13T22:11:46.459Z,9.32
2019-05-13T22:14:19.950Z,9.23
2019-05-13T22:16:56.483Z,9.28
2019-05-13T22:19:28.487Z,9.29
2019-05-13T22:22:02.475Z,9.33
2019-05-13T22:24:36.071Z,9.33
2019-05-13T22:27:10.947Z,9.26
2019-05-13T22:29:44.601Z,9.18
2019-05-13T22:32:18.021Z,9.10
2019-05-13T22:34:51.431Z,9.01
2019-05-13T22:37:24.849Z,9.00
2019-05-13T22:39:58.239Z,9.00
2019-05-13T22:42:32.185Z,9.01
2019-05-13T22:45:06.561Z,8.92
2019-05-13T22:47:41.715Z,8.96
2019-05-13T22:50:15.604Z,8.89
2019-05-13T22:52:49.019Z,8.84
2019-05-13T22:55:22.427Z,8.80
2019-05-13T22:57:55.851Z,8.83
2019-05-13T23:00:31.573Z,8.80
2019-05-13T23:03:04.599Z,8.82
2019-05-13T23:05:37.979Z,8.82
2019-05-13T23:08:11.430Z,8.83
2019-05-13T23:10:44.777Z,8.89
2019-05-13T23:13:18.208Z,8.87
2019-05-13T23:15:51.778Z,8.88
2019-05-13T23:18:25.142Z,8.86
2019-05-13T23:20:58.556Z,8.81
2019-05-13T23:23:31.980Z,8.81
2019-05-13T23:26:05.371Z,8.80
2019-05-13T23:28:38.795Z,8.80
2019-05-13T23:31:12.465Z,8.75
2019-05-13T23:33:45.852Z,8.74
2019-05-13T23:36:21.105Z,8.69
2019-05-13T23:38:54.386Z,8.59
2019-05-13T23:41:27.783Z,8.45
2019-05-13T23:44:01.468Z,8.33
2019-05-13T23:46:35.147Z,8.23
2019-05-13T23:49:08.571Z,8.18
2019-05-13T23:51:42.025Z,8.16
2019-05-13T23:54:15.427Z,8.09
2019-05-13T23:56:48.823Z,8.11
2019-05-13T23:59:22.245Z,8.14
